Strona główna
Zdjęcia satelitarne 15-dni prognozyKlimatMeteorologia morska Cyklony Błyskawica LotniskoFAQ Gazetka O
Pogoda : Europa Afryka Ameryka Północna Ameryka Południowa Azja Australia-Oceania Inny
Języki Kontakt

Doncaster Sheffield, Anglia

Robin Hood

Szerokość geograficzna: 53-29N, Długość geograficzna: 001-00W, wysokość: 17 m


METAR: EGCN 230950Z 25008KT 210V280 9999 SCT048 16/11 Q1020
TAF: EGCN 230801Z 2309/2318 22007KT 9999 FEW045

czas: 11:18 (10:18 UTC)

Aktualna obserwacja pogody

Raport powstał 28 minut temu, godzina 09:50 UTC  
Wiatr 08 kt od zachodnio-południowy zachód, zmienny między południowo-południowy zachód i zachód
Temperatura 16°C
Wilgotność 72%
Ciśnienie 1020 hPa
Widzialność 10 km lub więcej
Rozproszone chmury na wysokości 4800 ft

Jednostka miary

Prognoza

Raport powstał 02 godziny i 17 minut temu, godzina 08:01 UTC  
Prognoza ważna od 23 godzina 09 UTC do 23 godzina 18 UTC
Wiatr 07 kt od południowy zachód
Widzialność 10 km lub więcej
Mało chmury na wysokości 4500 ft
Informacje na tej stronie internetowej podlegają klauzuli o wyłączeniu odpowiedzialności
Pogoda : Europa Afryka Ameryka Północna Ameryka Południowa Azja Australia-Oceania Inny
Zdjęcia satelitarne 15-dni prognozyKlimatMeteorologia morska Cyklony Błyskawica LotniskoFAQ Języki Kontakt Gazetka O